Time;durP1;ratioP1;P1;durP2;ratioP2;P2;SDS_P1;SDS_P2;PMS_P1;PMS_P2;Temp;Humidity;BMP_temperature;BMP_pressure;BME280_temperature;BME280_humidity;BME280_pressure;Samples;Min_cycle;Max_cycle;Signal;HPM_P1;HPM_P2
2023/05/15 00:08:46;;;;;;;;;;;9.50;99.90;;;;;;21053372;28;19912;-77
2023/05/15 00:18:47;;;;;;;;;;;9.60;99.90;;;;;;21051359;28;19908;-77
2023/05/15 00:28:47;;;;;;;;;;;9.70;99.90;;;;;;21044125;28;19912;-77
2023/05/15 00:38:48;;;;;;;;;;;9.90;99.90;;;;;;21006907;28;20255;-77
2023/05/15 00:48:49;;;;;;;;;;;9.90;99.90;;;;;;21011971;28;19934;-77
2023/05/15 00:58:52;;;;;;;;;;;10.00;99.90;;;;;;20993933;28;20267;-77
2023/05/15 01:08:55;;;;;;;;;;;10.10;99.90;;;;;;20991942;28;19912;-77
2023/05/15 01:18:55;;;;;;;;;;;10.20;99.90;;;;;;20987550;28;19916;-77
2023/05/15 01:29:22;;;;;;;;;;;10.30;99.90;;;;;;21020697;28;19912;-76
2023/05/15 01:39:25;;;;;;;;;;;10.30;99.90;;;;;;21070231;28;19908;-77
2023/05/15 01:49:27;;;;;;;;;;;10.30;99.90;;;;;;21056166;28;19977;-77
2023/05/15 01:59:28;;;;;;;;;;;10.20;99.90;;;;;;21050996;28;20403;-78
2023/05/15 02:09:29;;;;;;;;;;;10.20;99.90;;;;;;21070820;28;19973;-78
2023/05/15 02:19:30;;;;;;;;;;;10.00;99.90;;;;;;21067517;28;19908;-77
2023/05/15 02:29:40;;;;;;;;;;;9.90;99.90;;;;;;21050524;28;19970;-78
2023/05/15 02:39:42;;;;;;;;;;;9.40;99.90;;;;;;21081206;28;19908;-78
2023/05/15 02:49:43;;;;;;;;;;;9.30;99.90;;;;;;21050626;28;19998;-78
2023/05/15 02:59:46;;;;;;;;;;;9.20;99.90;;;;;;21018152;28;19919;-78
2023/05/15 03:09:47;;;;;;;;;;;9.20;99.90;;;;;;21042141;28;19937;-77
2023/05/15 03:19:48;;;;;;;;;;;9.30;99.90;;;;;;21052546;28;19931;-78
2023/05/15 03:29:49;;;;;;;;;;;9.40;99.90;;;;;;20989552;28;19948;-77
2023/05/15 03:39:50;;;;;;;;;;;9.50;99.90;;;;;;21015335;28;19909;-77
2023/05/15 03:49:51;;;;;;;;;;;9.50;99.90;;;;;;21015939;28;20541;-77
2023/05/15 03:59:52;;;;;;;;;;;9.30;99.90;;;;;;21026271;28;19909;-78
2023/05/15 04:09:52;;;;;;;;;;;9.30;99.90;;;;;;21026030;28;19912;-76
2023/05/15 04:19:53;;;;;;;;;;;9.20;99.90;;;;;;21037267;28;19963;-78
2023/05/15 04:29:54;;;;;;;;;;;9.00;99.90;;;;;;21074700;28;19947;-77
2023/05/15 04:39:54;;;;;;;;;;;9.00;99.90;;;;;;21027680;28;19912;-77
2023/05/15 04:49:55;;;;;;;;;;;8.90;99.90;;;;;;20989547;28;19924;-76
2023/05/15 04:59:56;;;;;;;;;;;9.20;99.90;;;;;;21015535;28;19994;-76
2023/05/15 05:09:57;;;;;;;;;;;9.00;99.90;;;;;;21069819;28;19938;-76
2023/05/15 05:19:58;;;;;;;;;;;9.20;99.90;;;;;;21059224;28;19984;-77
2023/05/15 05:29:59;;;;;;;;;;;9.30;99.90;;;;;;20960707;28;19916;-76
2023/05/15 05:40:00;;;;;;;;;;;9.70;99.90;;;;;;21068973;28;20061;-75
2023/05/15 05:50:00;;;;;;;;;;;9.90;99.90;;;;;;21067059;28;19948;-75
2023/05/15 06:00:01;;;;;;;;;;;10.00;99.90;;;;;;20991876;28;19959;-75
2023/05/15 06:10:09;;;;;;;;;;;10.20;99.90;;;;;;21002428;28;19912;-75
2023/05/15 06:20:10;;;;;;;;;;;10.20;99.90;;;;;;21004413;28;20425;-75
2023/05/15 06:30:11;;;;;;;;;;;10.20;99.90;;;;;;21040489;28;20418;-75
2023/05/15 06:40:12;;;;;;;;;;;10.40;99.90;;;;;;21042400;28;19908;-75
2023/05/15 06:50:13;;;;;;;;;;;10.40;99.90;;;;;;21047965;28;19919;-75
2023/05/15 07:00:15;;;;;;;;;;;10.70;99.90;;;;;;20889249;28;19928;-75
2023/05/15 07:10:15;;;;;;;;;;;10.70;99.90;;;;;;21015418;28;20294;-76
2023/05/15 07:20:16;;;;;;;;;;;10.90;99.90;;;;;;21025597;28;20011;-76
2023/05/15 07:30:17;;;;;;;;;;;11.20;99.90;;;;;;20993203;28;20006;-76
2023/05/15 07:40:18;;;;;;;;;;;11.40;99.90;;;;;;21052358;28;20420;-76
2023/05/15 07:50:19;;;;;;;;;;;11.80;99.90;;;;;;20997248;28;19912;-76
2023/05/15 08:00:20;;;;;;;;;;;11.80;99.90;;;;;;20985706;28;19913;-75
2023/05/15 08:10:21;;;;;;;;;;;11.70;99.90;;;;;;20967094;28;19939;-76
2023/05/15 08:20:22;;;;;;;;;;;11.80;99.90;;;;;;20984040;28;19953;-76
2023/05/15 08:30:22;;;;;;;;;;;12.00;99.90;;;;;;20996140;28;19912;-76
2023/05/15 08:40:24;;;;;;;;;;;12.30;99.90;;;;;;20991380;28;19919;-76
2023/05/15 08:50:25;;;;;;;;;;;12.30;99.90;;;;;;21023951;28;19958;-75
2023/05/15 09:00:26;;;;;;;;;;;12.50;99.90;;;;;;21035100;28;19984;-76
2023/05/15 09:10:27;;;;;;;;;;;13.00;99.90;;;;;;21032105;28;19913;-76
2023/05/15 09:20:32;;;;;;;;;;;13.40;99.90;;;;;;20996040;28;19912;-76
2023/05/15 09:30:33;;;;;;;;;;;13.30;99.90;;;;;;20995957;28;19912;-75
2023/05/15 09:40:34;;;;;;;;;;;13.20;99.90;;;;;;20995570;28;19909;-76
2023/05/15 09:50:35;;;;;;;;;;;13.10;99.90;;;;;;21033679;28;19922;-76
2023/05/15 10:00:37;;;;;;;;;;;12.90;99.90;;;;;;21043389;28;19912;-76
2023/05/15 10:10:37;;;;;;;;;;;12.90;99.90;;;;;;20994121;28;19912;-77
2023/05/15 10:20:38;;;;;;;;;;;13.20;99.90;;;;;;21051921;28;20396;-77
2023/05/15 10:30:39;;;;;;;;;;;13.50;99.90;;;;;;21027385;28;19920;-77
2023/05/15 10:40:40;;;;;;;;;;;13.80;99.90;;;;;;21008264;28;19915;-77
2023/05/15 10:50:41;;;;;;;;;;;14.30;99.90;;;;;;21043126;28;19912;-77
2023/05/15 11:00:42;;;;;;;;;;;16.30;99.90;;;;;;21042164;28;19935;-77
2023/05/15 11:10:43;;;;;;;;;;;16.60;99.90;;;;;;20987513;28;20003;-78
2023/05/15 11:20:53;;;;;;;;;;;17.40;99.90;;;;;;21003850;28;19909;-78
2023/05/15 11:30:58;;;;;;;;;;;16.90;99.90;;;;;;20975325;28;20343;-77
2023/05/15 11:41:02;;;;;;;;;;;15.30;99.90;;;;;;20995474;28;20042;-77
2023/05/15 11:51:03;;;;;;;;;;;13.80;99.90;;;;;;21001673;28;19920;-77
2023/05/15 12:01:03;;;;;;;;;;;13.60;99.90;;;;;;21000151;28;20008;-77
2023/05/15 12:11:04;;;;;;;;;;;14.70;99.90;;;;;;21070408;28;20374;-77
2023/05/15 12:21:05;;;;;;;;;;;15.60;99.90;;;;;;21081114;28;19920;-77
2023/05/15 12:31:09;;;;;;;;;;;14.80;99.90;;;;;;21018899;28;19916;-77
2023/05/15 12:41:10;;;;;;;;;;;14.40;99.90;;;;;;21020683;28;19908;-76
2023/05/15 12:51:10;;;;;;;;;;;14.30;99.90;;;;;;21031669;28;19966;-76
2023/05/15 13:01:11;;;;;;;;;;;14.60;99.90;;;;;;21022205;28;20256;-77
2023/05/15 13:11:15;;;;;;;;;;;14.70;99.90;;;;;;20995972;28;19961;-77
2023/05/15 13:21:16;;;;;;;;;;;14.60;99.90;;;;;;20996420;28;19912;-77
2023/05/15 13:31:17;;;;;;;;;;;14.30;99.90;;;;;;20997667;28;19959;-77
2023/05/15 13:41:17;;;;;;;;;;;14.40;99.90;;;;;;21030264;28;19951;-77
2023/05/15 13:51:18;;;;;;;;;;;14.00;99.90;;;;;;21049774;28;19912;-76
2023/05/15 14:01:19;;;;;;;;;;;14.30;99.90;;;;;;21049671;28;19915;-76
2023/05/15 14:11:21;;;;;;;;;;;14.20;99.90;;;;;;21076772;28;20358;-77
2023/05/15 14:21:22;;;;;;;;;;;15.00;99.90;;;;;;21065226;28;19935;-77
2023/05/15 14:31:23;;;;;;;;;;;15.90;99.90;;;;;;21000627;28;20283;-76
2023/05/15 14:41:23;;;;;;;;;;;15.10;99.90;;;;;;21046033;28;19947;-77
2023/05/15 14:51:24;;;;;;;;;;;14.80;99.90;;;;;;21003281;28;19925;-76
2023/05/15 15:01:25;;;;;;;;;;;14.50;99.90;;;;;;20946432;28;19931;-76
2023/05/15 15:11:25;;;;;;;;;;;14.50;99.90;;;;;;20927795;28;19916;-77
2023/05/15 15:21:26;;;;;;;;;;;14.30;99.90;;;;;;20947917;28;19912;-77
2023/05/15 15:31:27;;;;;;;;;;;14.30;99.90;;;;;;20945079;28;19912;-78
2023/05/15 15:41:31;;;;;;;;;;;13.80;99.90;;;;;;20945876;28;19915;-78
2023/05/15 15:51:32;;;;;;;;;;;13.70;99.90;;;;;;20971805;28;19912;-78
2023/05/15 16:01:33;;;;;;;;;;;13.80;99.90;;;;;;20986975;28;19948;-78
2023/05/15 16:11:33;;;;;;;;;;;14.30;99.90;;;;;;21020614;28;19912;-78
2023/05/15 16:21:35;;;;;;;;;;;14.40;99.90;;;;;;21033189;28;19987;-78
2023/05/15 16:31:37;;;;;;;;;;;14.70;99.90;;;;;;21084737;28;20448;-78
2023/05/15 16:41:37;;;;;;;;;;;14.40;99.90;;;;;;21111519;28;20422;-78
2023/05/15 16:51:38;;;;;;;;;;;14.10;99.90;;;;;;21064838;28;19988;-77
2023/05/15 17:01:39;;;;;;;;;;;13.80;99.90;;;;;;21035021;28;19916;-78
2023/05/15 17:11:40;;;;;;;;;;;13.50;99.90;;;;;;21023050;28;20007;-78
2023/05/15 17:21:40;;;;;;;;;;;13.30;99.90;;;;;;21035374;28;19913;-78
2023/05/15 17:31:41;;;;;;;;;;;13.40;99.90;;;;;;21076138;28;19943;-77
2023/05/15 17:41:42;;;;;;;;;;;13.50;99.90;;;;;;21100836;28;19908;-78
2023/05/15 17:51:43;;;;;;;;;;;12.90;99.90;;;;;;21084449;28;19912;-78
2023/05/15 18:01:43;;;;;;;;;;;13.20;99.90;;;;;;21030557;28;19961;-78
2023/05/15 18:11:44;;;;;;;;;;;13.20;99.90;;;;;;21026409;28;20328;-78
2023/05/15 18:21:45;;;;;;;;;;;13.00;99.90;;;;;;21046412;28;20418;-77
2023/05/15 18:31:45;;;;;;;;;;;12.90;99.90;;;;;;21060081;28;19912;-78
2023/05/15 18:41:46;;;;;;;;;;;12.70;99.90;;;;;;21049950;28;19912;-76
2023/05/15 18:51:47;;;;;;;;;;;12.80;99.90;;;;;;21032139;28;19916;-76
2023/05/15 19:01:48;;;;;;;;;;;12.30;99.90;;;;;;21031558;28;19954;-76
2023/05/15 19:11:51;;;;;;;;;;;11.90;99.90;;;;;;21029240;28;19912;-75
2023/05/15 19:21:52;;;;;;;;;;;11.80;99.90;;;;;;21019465;28;19908;-77
2023/05/15 19:31:52;;;;;;;;;;;11.80;99.90;;;;;;21012556;28;20007;-75
2023/05/15 19:41:54;;;;;;;;;;;11.70;99.90;;;;;;21012273;28;20363;-75
2023/05/15 19:51:55;;;;;;;;;;;11.10;99.90;;;;;;21032463;28;20298;-76
2023/05/15 20:01:56;;;;;;;;;;;10.70;99.90;;;;;;21030635;28;20002;-76
2023/05/15 20:11:56;;;;;;;;;;;10.60;99.90;;;;;;21018310;28;19924;-76
2023/05/15 20:21:57;;;;;;;;;;;10.40;99.90;;;;;;21035011;28;20290;-76
2023/05/15 20:31:58;;;;;;;;;;;10.40;99.90;;;;;;21047117;28;19912;-76
2023/05/15 20:41:59;;;;;;;;;;;10.40;99.90;;;;;;21060694;28;19908;-76
2023/05/15 20:52:00;;;;;;;;;;;10.30;99.90;;;;;;21049208;28;19916;-76
2023/05/15 21:02:01;;;;;;;;;;;10.30;99.90;;;;;;21033156;28;20500;-76
2023/05/15 21:12:02;;;;;;;;;;;10.20;99.90;;;;;;20994222;28;19917;-76
2023/05/15 21:22:03;;;;;;;;;;;10.10;99.90;;;;;;21003508;28;19908;-76
2023/05/15 21:32:04;;;;;;;;;;;10.30;99.90;;;;;;21038529;28;19912;-76
2023/05/15 21:42:05;;;;;;;;;;;10.50;99.90;;;;;;21035813;28;19912;-76
2023/05/15 21:52:06;;;;;;;;;;;10.70;99.90;;;;;;21028962;28;19919;-77
2023/05/15 22:02:06;;;;;;;;;;;10.80;99.90;;;;;;21080481;28;19918;-76
2023/05/15 22:12:07;;;;;;;;;;;10.90;99.90;;;;;;21079640;28;19916;-76
2023/05/15 22:22:08;;;;;;;;;;;11.00;99.90;;;;;;21044143;28;20003;-76
2023/05/15 22:32:09;;;;;;;;;;;11.00;99.90;;;;;;21061145;28;19995;-77
2023/05/15 22:42:09;;;;;;;;;;;11.00;99.90;;;;;;21058910;28;19955;-76
2023/05/15 22:52:10;;;;;;;;;;;11.00;99.90;;;;;;21047250;28;19913;-76
2023/05/15 23:02:11;;;;;;;;;;;11.00;99.90;;;;;;20976623;28;20143;-76
2023/05/15 23:12:11;;;;;;;;;;;10.90;99.90;;;;;;20991444;28;19912;-76
2023/05/15 23:22:12;;;;;;;;;;;10.90;99.90;;;;;;21011077;28;19915;-76
2023/05/15 23:32:13;;;;;;;;;;;10.90;99.90;;;;;;21040785;28;19912;-75
2023/05/15 23:42:14;;;;;;;;;;;11.00;99.90;;;;;;21011318;28;19915;-76
2023/05/15 23:52:14;;;;;;;;;;;11.00;99.90;;;;;;20997007;28;19919;-76
